Algosea — CFN4229 — position and weather

sailwx.info

Track history (hours):
 
Tides and Currents Weather Stations Pressure Air Temp Water Temp Dewpoint Dewpoint Depression Visibility Wind Speed Wind Dir Waves Ship Positions

Algosea

Last reported at 2016-Jun-24 18:32 UTC. Time now 2016-Jun-26 10:13 UTC.
Position N 42°30' W 080°05'.

Length 144 m; draft 6.5 m.

Type: Ship. MMSI: 316006868.

Date/timePositionNaut miles runAvg speedWind from/ knotsBaromVisibWave heightAir tempDewpointWater temp
2016-Jun-24 18:32N 42°30' W 080°05'1010.4
2016-Jun-24 17:33N 42°40' W 080°04'8 0.3
2016-Jun-23 15:04N 42°48' W 080°03'0 0.8
2016-Jun-23 14:33N 42°47' W 080°03'4 4.4
2016-Jun-23 13:33N 42°44' W 080°06'3 3.3
2016-Jun-23 12:33N 42°44' W 080°11'0 0.0
2016-Jun-23 11:28N 42°44' W 080°11'0 0.0
2016-Jun-23 10:28N 42°44' W 080°11'0 0.0
2016-Jun-23 09:04N 42°44' W 080°11'0 0.0
2016-Jun-23 08:28N 42°44' W 080°11'0 0.0
2016-Jun-23 07:28N 42°44' W 080°11'0 0.1
2016-Jun-23 05:28N 42°44' W 080°11'0 0.0
2016-Jun-23 04:28N 42°44' W 080°11'0 0.1
2016-Jun-23 03:28N 42°44' W 080°11'0 0.0
2016-Jun-23 02:28N 42°44' W 080°11'0 0.0
2016-Jun-23 01:28N 42°44' W 080°11'0 0.0
2016-Jun-23 00:28N 42°44' W 080°11'0 0.0
2016-Jun-22 23:28N 42°44' W 080°11'0 0.0
2016-Jun-22 22:22N 42°44' W 080°11'0 0.0
2016-Jun-22 21:28N 42°44' W 080°11'0 0.0
2016-Jun-22 20:28N 42°44' W 080°11'0 0.0
2016-Jun-22 19:28N 42°44' W 080°11'0 0.4
2016-Jun-22 18:34N 42°44' W 080°10'9 8.5
2016-Jun-22 17:33N 42°37' W 080°04'1010.4
2016-Jun-22 16:34N 42°27' W 080°04'  
2016-Jun-17 11:04N 42°19' W 080°44'612.7
2016-Jun-17 10:33N 42°21' W 080°36'1312.6
2016-Jun-17 09:33N 42°25' W 080°20'1312.8
2016-Jun-17 08:33N 42°30' W 080°03'1110.8
2016-Jun-17 07:33N 42°41' W 080°04'7 7.2
2016-Jun-17 06:33N 42°48' W 080°03'0 0.0
2016-Jun-17 05:33N 42°48' W 080°03'0 0.0
2016-Jun-16 04:11N 42°48' W 080°03'0 0.0
2016-Jun-16 03:32N 42°48' W 080°03'  
Track history (hours):
 
Tides and Currents Weather Stations Pressure Air Temp Water Temp Dewpoint Dewpoint Depression Visibility Wind Speed Wind Dir Waves Ship Positions

Algosea

Last reported at 2016-Jun-24 18:32 UTC. Time now 2016-Jun-26 10:13 UTC.
Position N 42°30' W 080°05'.

Length 144 m; draft 6.5 m.

Type: Ship. MMSI: 316006868.

Date/timePositionNaut miles runAvg speedWind from/ knotsBaromVisibWave heightAir tempDewpointWater temp
2016-Jun-24 18:32N 42°30' W 080°05'1010.4
2016-Jun-24 17:33N 42°40' W 080°04'8 0.3
2016-Jun-23 15:04N 42°48' W 080°03'0 0.8
2016-Jun-23 14:33N 42°47' W 080°03'4 4.4
2016-Jun-23 13:33N 42°44' W 080°06'3 3.3
2016-Jun-23 12:33N 42°44' W 080°11'0 0.0
2016-Jun-23 11:28N 42°44' W 080°11'0 0.0
2016-Jun-23 10:28N 42°44' W 080°11'0 0.0
2016-Jun-23 09:04N 42°44' W 080°11'0 0.0
2016-Jun-23 08:28N 42°44' W 080°11'0 0.0
2016-Jun-23 07:28N 42°44' W 080°11'0 0.1
2016-Jun-23 05:28N 42°44' W 080°11'0 0.0
2016-Jun-23 04:28N 42°44' W 080°11'0 0.1
2016-Jun-23 03:28N 42°44' W 080°11'0 0.0
2016-Jun-23 02:28N 42°44' W 080°11'0 0.0
2016-Jun-23 01:28N 42°44' W 080°11'0 0.0
2016-Jun-23 00:28N 42°44' W 080°11'0 0.0
2016-Jun-22 23:28N 42°44' W 080°11'0 0.0
2016-Jun-22 22:22N 42°44' W 080°11'0 0.0
2016-Jun-22 21:28N 42°44' W 080°11'0 0.0
2016-Jun-22 20:28N 42°44' W 080°11'0 0.0
2016-Jun-22 19:28N 42°44' W 080°11'0 0.4
2016-Jun-22 18:34N 42°44' W 080°10'9 8.5
2016-Jun-22 17:33N 42°37' W 080°04'1010.4
2016-Jun-22 16:34N 42°27' W 080°04'  
2016-Jun-17 11:04N 42°19' W 080°44'612.7
2016-Jun-17 10:33N 42°21' W 080°36'1312.6
2016-Jun-17 09:33N 42°25' W 080°20'1312.8
2016-Jun-17 08:33N 42°30' W 080°03'1110.8
2016-Jun-17 07:33N 42°41' W 080°04'7 7.2
2016-Jun-17 06:33N 42°48' W 080°03'0 0.0
2016-Jun-17 05:33N 42°48' W 080°03'0 0.0
2016-Jun-16 04:11N 42°48' W 080°03'0 0.0
2016-Jun-16 03:32N 42°48' W 080°03'  

Dump ship's entire track history